createdAt,value
2023-09-13T02:25:33.283Z,72.77
2023-09-13T02:30:41.548Z,73.05
2023-09-13T02:35:48.610Z,72.97
2023-09-13T02:40:52.774Z,73.11
2023-09-13T02:45:57.077Z,72.98
2023-09-13T02:51:02.676Z,72.99
2023-09-13T02:56:08.664Z,73.02
2023-09-13T03:01:14.211Z,73.20
2023-09-13T03:06:20.231Z,73.23
2023-09-13T03:11:27.425Z,73.42
2023-09-13T03:16:38.351Z,73.44
2023-09-13T03:21:46.491Z,73.47
2023-09-13T03:26:51.584Z,73.58
2023-09-13T03:31:57.516Z,73.52
2023-09-13T03:37:04.476Z,73.54
2023-09-13T03:42:09.749Z,73.65
2023-09-13T03:47:16.172Z,73.82
2023-09-13T03:52:22.170Z,73.80
2023-09-13T03:57:26.942Z,73.91
2023-09-13T04:02:32.611Z,74.03
2023-09-13T04:07:39.105Z,74.20
2023-09-13T04:12:43.971Z,74.36
2023-09-13T04:17:48.389Z,74.57
2023-09-13T04:22:53.842Z,74.59
2023-09-13T04:27:57.670Z,74.70
2023-09-13T04:33:04.064Z,74.88
2023-09-13T04:38:10.756Z,74.81
2023-09-13T04:43:14.321Z,75.07
2023-09-13T04:48:18.526Z,75.48
2023-09-13T04:53:23.343Z,75.69
2023-09-13T04:58:28.936Z,75.66
2023-09-13T05:03:38.079Z,75.25
2023-09-13T05:08:42.631Z,75.06
2023-09-13T05:13:51.673Z,75.63
2023-09-13T05:18:56.448Z,74.75
2023-09-13T05:24:03.310Z,74.70
2023-09-13T05:29:06.914Z,74.64
2023-09-13T05:34:10.823Z,74.52
2023-09-13T05:39:15.068Z,74.71
2023-09-13T05:44:31.561Z,74.87
2023-09-13T05:49:35.917Z,74.95
2023-09-13T05:54:40.359Z,75.05
2023-09-13T05:59:44.445Z,75.15
2023-09-13T06:04:51.415Z,74.92
2023-09-13T06:09:59.637Z,74.86
2023-09-13T06:15:04.894Z,74.81
2023-09-13T06:20:09.607Z,74.82
2023-09-13T06:25:15.376Z,74.84
2023-09-13T06:30:20.980Z,74.73
2023-09-13T06:35:25.651Z,74.67
2023-09-13T06:40:35.536Z,74.54
2023-09-13T06:46:01.388Z,73.91
2023-09-13T06:51:48.781Z,73.35
2023-09-13T06:56:40.975Z,72.94
2023-09-13T07:02:07.624Z,71.64
2023-09-13T07:07:16.002Z,70.59
2023-09-13T07:12:23.810Z,69.34
2023-09-13T07:17:33.238Z,68.17
2023-09-13T07:22:38.178Z,68.10
2023-09-13T07:27:44.569Z,68.19
2023-09-13T07:32:52.642Z,68.06
2023-09-13T07:37:59.367Z,67.24
2023-09-13T07:43:05.943Z,66.15
2023-09-13T07:48:09.654Z,65.33
2023-09-13T07:53:14.519Z,64.79
2023-09-13T07:58:18.314Z,63.60
2023-09-13T08:03:22.247Z,62.96
2023-09-13T08:08:28.182Z,62.61
2023-09-13T08:13:34.463Z,61.76
2023-09-13T08:18:40.105Z,61.44
2023-09-13T08:23:45.774Z,60.49
2023-09-13T08:28:53.229Z,60.22
2023-09-13T08:33:59.263Z,58.39
2023-09-13T08:39:03.417Z,57.50
2023-09-13T08:44:08.409Z,56.50
2023-09-13T08:49:11.930Z,55.81
2023-09-13T08:54:17.193Z,55.45
2023-09-13T09:18:03.750Z,53.43
2023-09-13T09:23:08.943Z,53.62
2023-09-13T09:28:12.295Z,52.95
2023-09-13T09:33:16.293Z,52.69
2023-09-13T09:38:26.008Z,52.67
2023-09-13T09:43:32.460Z,52.42
2023-09-13T09:48:38.481Z,51.76
2023-09-13T09:53:44.583Z,51.68
2023-09-13T09:58:49.207Z,51.34
2023-09-13T10:03:59.574Z,50.89
2023-09-13T10:09:06.185Z,50.28
2023-09-13T10:14:11.244Z,50.15
2023-09-13T10:19:15.859Z,49.21
2023-09-13T10:24:23.450Z,48.79
2023-09-13T10:29:55.226Z,47.51
2023-09-13T10:35:04.821Z,47.84
2023-09-13T10:40:30.193Z,47.60
2023-09-13T10:45:39.059Z,46.34
2023-09-13T10:50:43.395Z,46.15
2023-09-13T10:55:50.022Z,45.57
2023-09-13T11:00:56.961Z,45.64
2023-09-13T11:06:02.043Z,45.16
2023-09-13T11:11:20.286Z,45.03
2023-09-13T11:16:24.925Z,44.72
2023-09-13T11:22:02.209Z,45.05
2023-09-13T12:19:27.484Z,37.87
2023-09-13T12:24:32.762Z,37.37
2023-09-13T12:29:45.957Z,37.04
2023-09-13T12:34:50.043Z,36.91
2023-09-13T12:39:56.917Z,37.21
2023-09-13T12:45:03.873Z,37.00
2023-09-13T12:50:28.402Z,34.89
2023-09-13T12:55:39.569Z,34.73
2023-09-13T13:01:04.846Z,34.84
2023-09-13T13:06:09.725Z,34.73
2023-09-13T13:11:14.000Z,35.09
2023-09-13T13:16:34.984Z,35.02
2023-09-13T13:22:10.093Z,34.81
2023-09-13T13:27:20.475Z,34.50
2023-09-13T13:32:41.729Z,33.39
2023-09-13T13:37:49.017Z,33.70
2023-09-13T13:42:54.488Z,32.93
2023-09-13T13:48:00.423Z,32.64
2023-09-13T13:53:06.710Z,32.05
2023-09-13T13:58:12.856Z,32.79
2023-09-13T14:03:17.946Z,33.16
2023-09-13T14:08:25.060Z,33.45
2023-09-13T14:13:32.370Z,34.23
2023-09-13T14:18:37.579Z,34.03
2023-09-13T14:23:57.422Z,33.94
2023-09-13T14:29:01.948Z,34.79
2023-09-13T14:34:07.697Z,34.99
2023-09-13T14:39:14.283Z,35.22
2023-09-13T14:44:18.655Z,35.79
2023-09-13T14:49:35.891Z,36.28
2023-09-13T14:54:39.851Z,36.64
2023-09-13T14:59:44.417Z,36.45
2023-09-13T15:04:53.201Z,36.55
2023-09-13T15:09:57.980Z,37.01
2023-09-13T15:15:02.645Z,37.28
2023-09-13T15:20:09.564Z,37.22
2023-09-13T15:25:14.773Z,37.41
2023-09-13T15:30:23.073Z,37.63
2023-09-13T15:35:29.338Z,38.63
2023-09-13T15:40:33.769Z,38.63
2023-09-13T15:45:41.999Z,39.54
2023-09-13T15:50:47.293Z,40.33
2023-09-13T15:55:55.735Z,39.92
2023-09-13T16:01:00.500Z,40.15
2023-09-13T16:06:05.548Z,39.95
2023-09-13T16:11:10.312Z,40.02
2023-09-13T16:16:14.859Z,41.43
2023-09-13T16:21:20.854Z,43.30
2023-09-13T16:26:26.884Z,43.90
2023-09-13T16:31:31.106Z,44.70
2023-09-13T16:36:35.166Z,45.35
2023-09-13T16:41:44.181Z,46.09
2023-09-13T16:46:47.480Z,46.66
2023-09-13T16:51:52.122Z,47.29
2023-09-13T16:56:56.393Z,48.42
2023-09-13T17:02:01.820Z,49.28
2023-09-13T17:07:09.166Z,50.03
2023-09-13T17:12:13.960Z,50.60
2023-09-13T17:17:24.681Z,51.02
2023-09-13T17:22:28.656Z,51.24
2023-09-13T17:27:34.149Z,51.95
2023-09-13T17:32:39.759Z,52.43
2023-09-13T17:37:45.866Z,52.69
2023-09-13T17:42:50.753Z,53.25
2023-09-13T17:47:55.922Z,53.76
2023-09-13T17:53:00.827Z,54.24
2023-09-13T17:58:05.659Z,53.77
2023-09-13T18:03:10.127Z,52.26
2023-09-13T18:08:15.918Z,51.83
2023-09-13T18:13:21.589Z,51.51
2023-09-13T18:18:28.422Z,51.34
2023-09-13T18:23:36.908Z,51.27
2023-09-13T19:18:36.405Z,52.67
2023-09-13T19:23:45.756Z,53.08
2023-09-13T19:28:57.319Z,53.18
2023-09-13T19:34:03.707Z,53.61
2023-09-13T19:39:07.683Z,53.78
2023-09-13T19:44:12.185Z,54.26
2023-09-13T19:49:17.209Z,54.83
2023-09-13T19:54:23.136Z,55.28
2023-09-13T19:59:28.674Z,55.62
2023-09-13T20:04:34.966Z,55.50
2023-09-13T20:09:40.719Z,55.74
2023-09-13T20:14:45.963Z,55.92
2023-09-13T20:19:51.700Z,56.05
2023-09-13T20:24:58.047Z,56.00
2023-09-13T20:30:03.917Z,55.93
2023-09-13T20:35:08.061Z,55.98
2023-09-13T20:40:13.231Z,55.93
2023-09-13T20:45:17.377Z,56.09
2023-09-13T20:50:21.097Z,55.40
2023-09-13T20:55:26.120Z,55.01
2023-09-13T21:00:31.835Z,55.01
2023-09-13T21:05:36.487Z,54.24
2023-09-13T21:10:41.038Z,53.49
2023-09-13T21:15:54.676Z,53.14
2023-09-13T21:21:00.143Z,53.17
2023-09-13T21:26:03.773Z,53.25
2023-09-13T21:31:08.641Z,53.30
2023-09-13T21:36:14.869Z,53.43
2023-09-13T21:41:19.486Z,53.86
2023-09-13T21:46:22.804Z,53.98
2023-09-13T21:51:42.392Z,54.27
2023-09-13T21:56:47.053Z,54.64
2023-09-13T22:01:54.585Z,54.80
2023-09-13T22:09:21.831Z,55.14
2023-09-13T22:14:27.284Z,55.32
2023-09-13T22:19:32.607Z,55.53
2023-09-13T22:24:38.785Z,55.66
2023-09-13T22:29:49.249Z,56.00
2023-09-13T22:34:56.388Z,56.06
2023-09-13T22:40:03.489Z,56.55
2023-09-13T22:45:06.893Z,56.95
2023-09-13T22:50:11.339Z,57.31
2023-09-13T22:55:15.915Z,57.64
2023-09-13T23:00:21.490Z,58.14
2023-09-13T23:05:26.263Z,58.74
2023-09-13T23:10:30.595Z,59.39
2023-09-13T23:15:34.891Z,59.93
2023-09-13T23:20:40.557Z,60.39
2023-09-13T23:26:11.256Z,61.14
2023-09-13T23:31:22.758Z,62.00
2023-09-13T23:36:29.667Z,62.33
2023-09-13T23:41:33.518Z,63.06
2023-09-13T23:46:40.824Z,63.41
2023-09-13T23:51:44.407Z,63.94
2023-09-13T23:56:50.158Z,64.40
